Delavan, Minnesota
Current Conditions -  °F | °C
As of 2:35 AM on Friday 19 Dec 2014 (Local Time) from KFRM Reporting Station
Overcast Overcast  
Wind Chill: 17°   Ceiling: 3300
Heat Index: 25°   Visibility: 10mi
Dew Point: 19°   Wind: 7mph
Humidity: 80%   Direction: 160°SSE
Pressure: 30.22"   Gusts: NA
Location:  43.77°N, 94.02°W
Report Text: KFRM 190835Z AUTO 16006KT 10SM FEW016 OVC033 M04/M07 A3022 RMK AO1
Loading
Personal Weather Stations






























Interactive Weather Map New forecast layout! Learn more

10-Day Weather Forecast

Advertisements
Track Severe Weather on mobile